Time;durP1;ratioP1;P1;durP2;ratioP2;P2;SDS_P1;SDS_P2;PMS_P1;PMS_P2;Temp;Humidity;BMP_temperature;BMP_pressure;BME280_temperature;BME280_humidity;BME280_pressure;Samples;Min_cycle;Max_cycle;Signal;HPM_P1;HPM_P2
2023/11/12 00:02:43;;;;;;;4.57;3.23;;;7.50;99.90;;;;;;5075827;28;20472;-76
2023/11/12 00:05:30;;;;;;;5.50;4.60;;;7.50;99.90;;;;;;5081183;28;20954;-76
2023/11/12 00:08:18;;;;;;;4.07;3.30;;;7.50;99.90;;;;;;5080735;28;20800;-76
2023/11/12 00:11:04;;;;;;;12.10;4.97;;;7.60;99.90;;;;;;5082168;28;20442;-76
2023/11/12 00:13:49;;;;;;;6.17;3.40;;;7.50;99.90;;;;;;5078844;28;20474;-76
2023/11/12 00:16:35;;;;;;;5.77;3.43;;;7.40;99.90;;;;;;5080399;28;20501;-76
2023/11/12 00:19:21;;;;;;;4.50;3.53;;;7.30;99.90;;;;;;5071625;28;20592;-76
2023/11/12 00:22:09;;;;;;;7.37;3.80;;;7.30;99.90;;;;;;5077757;28;20450;-76
2023/11/12 00:24:55;;;;;;;3.63;3.03;;;7.30;99.90;;;;;;5083519;28;20937;-76
2023/11/12 00:27:41;;;;;;;4.53;3.67;;;7.10;99.90;;;;;;5082935;28;20724;-76
2023/11/12 00:30:27;;;;;;;10.40;3.50;;;7.10;99.90;;;;;;5075888;28;20504;-76
2023/11/12 00:33:12;;;;;;;3.97;2.63;;;7.10;99.90;;;;;;5087292;28;21058;-75
2023/11/12 00:35:58;;;;;;;4.27;3.23;;;6.90;99.90;;;;;;5066254;28;20986;-76
2023/11/12 00:38:45;;;;;;;3.27;2.83;;;6.80;99.90;;;;;;5076496;28;20512;-76
2023/11/12 00:41:30;;;;;;;5.10;2.67;;;6.80;99.90;;;;;;5073260;28;20965;-76
2023/11/12 00:44:17;;;;;;;4.30;3.10;;;6.80;99.90;;;;;;5063559;28;20465;-77
2023/11/12 00:47:03;;;;;;;8.50;3.20;;;6.70;99.90;;;;;;5069503;28;20968;-76
2023/11/12 00:49:49;;;;;;;7.70;2.80;;;6.70;99.90;;;;;;5069811;28;20468;-76
2023/11/12 00:52:35;;;;;;;5.53;2.93;;;6.70;99.90;;;;;;5068636;28;20531;-76
2023/11/12 00:55:22;;;;;;;5.83;2.90;;;6.70;99.90;;;;;;5078922;28;20482;-76
2023/11/12 00:58:08;;;;;;;3.93;2.90;;;6.70;99.90;;;;;;5081034;28;20445;-76
2023/11/12 01:00:53;;;;;;;7.60;3.47;;;6.70;99.90;;;;;;5078493;28;20496;-76
2023/11/12 01:03:39;;;;;;;4.00;2.90;;;6.70;99.90;;;;;;5077257;28;20483;-76
2023/11/12 01:06:25;;;;;;;4.23;3.13;;;6.70;99.90;;;;;;5069990;28;20450;-76
2023/11/12 01:09:11;;;;;;;4.73;2.83;;;6.80;99.90;;;;;;5064952;28;20435;-76
2023/11/12 01:11:59;;;;;;;9.53;2.93;;;6.90;99.90;;;;;;5072127;28;20960;-76
2023/11/12 01:14:44;;;;;;;5.40;3.10;;;6.90;99.90;;;;;;5073638;28;20476;-76
2023/11/12 01:17:30;;;;;;;3.90;2.67;;;6.90;99.90;;;;;;5078374;28;20837;-76
2023/11/12 01:20:16;;;;;;;5.00;2.67;;;6.80;99.90;;;;;;5076929;28;20803;-76
2023/11/12 01:23:02;;;;;;;3.47;2.40;;;6.80;99.90;;;;;;5082702;28;20551;-76
2023/11/12 01:25:48;;;;;;;5.40;2.50;;;6.90;99.90;;;;;;5073851;28;20451;-76
2023/11/12 01:28:35;;;;;;;6.37;2.93;;;6.90;99.90;;;;;;5074971;28;20446;-76
2023/11/12 01:31:22;;;;;;;5.70;3.00;;;6.80;99.90;;;;;;5075699;28;21034;-76
2023/11/12 01:34:08;;;;;;;6.40;3.60;;;6.80;99.90;;;;;;5075396;28;20833;-76
2023/11/12 01:36:54;;;;;;;5.70;3.50;;;6.90;99.90;;;;;;5087899;28;20498;-76
2023/11/12 01:39:39;;;;;;;5.97;3.20;;;6.90;99.90;;;;;;5078862;28;20994;-76
2023/11/12 01:42:25;;;;;;;5.17;2.73;;;6.90;99.90;;;;;;5081652;28;20682;-76
2023/11/12 01:45:13;;;;;;;5.63;3.07;;;7.00;99.90;;;;;;5076027;28;20452;-76
2023/11/12 01:47:59;;;;;;;9.00;3.03;;;7.10;99.90;;;;;;5073184;28;20984;-76
2023/11/12 01:50:44;;;;;;;4.25;2.80;;;7.10;99.90;;;;;;5073873;28;20447;-76
2023/11/12 01:53:32;;;;;;;4.20;2.67;;;7.20;99.90;;;;;;5073814;28;20293;-76
2023/11/12 01:56:19;;;;;;;5.70;3.60;;;7.20;99.90;;;;;;5078383;28;20584;-76
2023/11/12 01:59:07;;;;;;;8.60;2.87;;;7.20;99.90;;;;;;5077431;28;20441;-76
2023/11/12 02:01:54;;;;;;;4.50;3.50;;;7.20;99.90;;;;;;5078658;28;20510;-76
2023/11/12 02:04:40;;;;;;;6.20;3.67;;;7.10;99.90;;;;;;5071166;28;20463;-76
2023/11/12 02:07:25;;;;;;;8.30;3.97;;;7.20;99.90;;;;;;5070278;28;20450;-76
2023/11/12 02:10:14;;;;;;;7.90;4.70;;;7.20;99.90;;;;;;5069197;28;20466;-76
2023/11/12 02:13:01;;;;;;;6.37;3.27;;;7.00;99.90;;;;;;5075737;28;20520;-76
2023/11/12 02:15:47;;;;;;;12.17;3.40;;;7.00;99.90;;;;;;5076807;28;20477;-76
2023/11/12 02:18:35;;;;;;;5.25;3.70;;;7.00;99.90;;;;;;5068939;28;20551;-77
2023/11/12 02:21:24;;;;;;;7.40;3.37;;;7.00;99.90;;;;;;5074946;28;20219;-76
2023/11/12 02:24:11;;;;;;;6.23;3.50;;;7.00;99.90;;;;;;5072999;28;20465;-76
2023/11/12 02:26:56;;;;;;;6.07;3.70;;;7.00;99.90;;;;;;5078089;28;20451;-76
2023/11/12 02:29:48;;;;;;;5.50;3.53;;;7.10;99.90;;;;;;5087267;28;20506;-76
2023/11/12 02:32:35;;;;;;;6.07;3.27;;;7.20;99.90;;;;;;5061158;28;20462;-76
2023/11/12 02:35:20;;;;;;;3.97;3.28;;;7.20;99.90;;;;;;5068641;28;21019;-77
2023/11/12 02:38:06;;;;;;;4.87;4.00;;;7.10;99.90;;;;;;5068537;28;20217;-76
2023/11/12 02:40:53;;;;;;;4.77;3.77;;;7.00;99.90;;;;;;5074108;28;20467;-76
2023/11/12 02:43:39;;;;;;;5.30;4.33;;;7.00;99.90;;;;;;5072527;28;20484;-76
2023/11/12 02:46:24;;;;;;;6.30;3.73;;;7.00;99.90;;;;;;5068399;28;20562;-76
2023/11/12 02:49:30;;;;;;;4.87;3.70;;;6.90;99.90;;;;;;5073812;28;20426;-76
2023/11/12 02:52:15;;;;;;;7.70;3.90;;;7.00;99.90;;;;;;5066867;28;20539;-76
2023/11/12 02:55:01;;;;;;;5.40;4.05;;;6.90;99.90;;;;;;5079398;28;21019;-76
2023/11/12 02:57:48;;;;;;;4.40;3.63;;;7.00;99.90;;;;;;5075594;28;20205;-76
2023/11/12 03:00:35;;;;;;;5.50;3.70;;;6.90;99.90;;;;;;5076930;28;20484;-76
2023/11/12 03:03:21;;;;;;;10.67;4.57;;;7.00;99.90;;;;;;5088366;28;20441;-76
2023/11/12 03:06:07;;;;;;;5.17;3.47;;;6.90;99.90;;;;;;5067801;28;20438;-76
2023/11/12 03:08:54;;;;;;;6.03;4.30;;;6.90;99.90;;;;;;5085989;28;20819;-76
2023/11/12 03:11:39;;;;;;;6.23;4.90;;;6.90;99.90;;;;;;5072643;28;20470;-76
2023/11/12 03:14:28;;;;;;;6.23;4.20;;;7.00;99.90;;;;;;5070043;28;20478;-77
2023/11/12 03:17:13;;;;;;;4.90;4.27;;;6.90;99.90;;;;;;5091801;28;20497;-76
2023/11/12 03:19:59;;;;;;;5.33;4.20;;;6.90;99.90;;;;;;5076451;28;20430;-77
2023/11/12 03:22:46;;;;;;;9.13;5.00;;;6.90;99.90;;;;;;5089333;28;20450;-77
2023/11/12 03:25:32;;;;;;;6.33;4.40;;;6.90;99.90;;;;;;5087808;28;20561;-77
2023/11/12 03:28:18;;;;;;;5.60;4.50;;;6.90;99.90;;;;;;5083998;28;20467;-77
2023/11/12 03:31:05;;;;;;;4.80;3.90;;;6.90;99.90;;;;;;5077318;28;20430;-76
2023/11/12 03:33:51;;;;;;;7.67;4.30;;;6.90;99.90;;;;;;5083719;28;20443;-77
2023/11/12 03:36:37;;;;;;;8.73;4.83;;;6.90;99.90;;;;;;5079502;28;20426;-77
2023/11/12 03:39:23;;;;;;;8.80;4.60;;;6.90;99.90;;;;;;5082723;28;20791;-77
2023/11/12 03:42:09;;;;;;;6.33;4.47;;;6.90;99.90;;;;;;5090707;28;20827;-77
2023/11/12 03:44:56;;;;;;;6.20;4.60;;;6.80;99.90;;;;;;5080550;28;21001;-77
2023/11/12 03:47:43;;;;;;;6.50;4.57;;;6.80;99.90;;;;;;5088330;28;20941;-76
2023/11/12 03:50:29;;;;;;;10.73;5.17;;;6.80;99.90;;;;;;5077597;28;20581;-77
2023/11/12 03:53:15;;;;;;;7.40;4.00;;;6.70;99.90;;;;;;5075329;28;20467;-77
2023/11/12 03:56:00;;;;;;;7.57;4.43;;;6.70;99.90;;;;;;5079036;28;20491;-77
2023/11/12 03:58:46;;;;;;;10.13;4.23;;;6.70;99.90;;;;;;5086553;28;20471;-77
2023/11/12 04:01:32;;;;;;;8.33;4.63;;;6.60;99.90;;;;;;5082610;28;20946;-77
2023/11/12 04:04:19;;;;;;;5.05;4.20;;;6.50;99.90;;;;;;5083537;28;20461;-77
2023/11/12 04:07:05;;;;;;;7.93;4.30;;;6.50;99.90;;;;;;5081184;28;20208;-76
2023/11/12 04:09:50;;;;;;;5.50;4.00;;;6.40;99.90;;;;;;5073392;28;20501;-76
2023/11/12 04:12:37;;;;;;;5.57;4.53;;;6.30;99.90;;;;;;5082988;28;20480;-77
2023/11/12 04:15:22;;;;;;;5.82;4.28;;;6.30;99.90;;;;;;5090559;28;20473;-77
2023/11/12 04:18:08;;;;;;;10.50;3.75;;;6.30;99.90;;;;;;5082851;28;20209;-76
2023/11/12 04:20:55;;;;;;;7.23;4.60;;;6.20;99.90;;;;;;5062256;28;20812;-76
2023/11/12 04:23:44;;;;;;;4.63;4.07;;;6.10;99.90;;;;;;5058926;28;20467;-76
2023/11/12 04:26:31;;;;;;;9.52;4.88;;;6.00;99.90;;;;;;5061107;28;20209;-77
2023/11/12 04:29:16;;;;;;;6.70;5.32;;;6.00;99.90;;;;;;5061383;28;20560;-76
2023/11/12 04:32:03;;;;;;;7.35;4.70;;;6.10;99.90;;;;;;5066362;28;20204;-75
2023/11/12 04:34:49;;;;;;;5.10;4.60;;;6.00;99.90;;;;;;5068142;28;20238;-75
2023/11/12 04:37:35;;;;;;;5.70;4.27;;;6.00;99.90;;;;;;5059380;28;20578;-76
2023/11/12 04:40:22;;;;;;;7.55;4.80;;;5.90;99.90;;;;;;5060648;28;20813;-77
2023/11/12 04:43:08;;;;;;;9.52;3.85;;;5.90;99.90;;;;;;5059490;28;20225;-76
2023/11/12 04:45:55;;;;;;;7.07;4.47;;;5.80;99.90;;;;;;5069913;28;20247;-76
2023/11/12 04:48:41;;;;;;;13.30;4.87;;;5.80;99.90;;;;;;5072618;28;20781;-77
2023/11/12 04:51:26;;;;;;;9.37;5.63;;;5.80;99.90;;;;;;5067245;28;20444;-77
2023/11/12 04:54:14;;;;;;;8.55;4.80;;;5.70;99.90;;;;;;5068601;28;20465;-77
2023/11/12 04:56:59;;;;;;;7.95;5.80;;;5.60;99.90;;;;;;5060036;28;20212;-76
2023/11/12 04:59:45;;;;;;;6.20;5.20;;;5.70;99.90;;;;;;5060642;28;20821;-77
2023/11/12 05:02:30;;;;;;;6.03;4.75;;;5.80;99.90;;;;;;5070981;28;20965;-77
2023/11/12 05:05:16;;;;;;;8.45;5.47;;;5.80;99.90;;;;;;5076663;28;20278;-77
2023/11/12 05:08:02;;;;;;;10.18;5.22;;;6.00;99.90;;;;;;5061684;28;20272;-77
2023/11/12 05:10:49;;;;;;;6.00;4.70;;;6.10;99.90;;;;;;5060546;28;20204;-77
2023/11/12 05:13:36;;;;;;;8.52;4.88;;;6.20;99.90;;;;;;5061593;28;20473;-76
2023/11/12 05:16:22;;;;;;;6.67;4.93;;;6.30;99.90;;;;;;5072529;28;20267;-76
2023/11/12 05:19:08;;;;;;;9.93;5.10;;;6.40;99.90;;;;;;5078346;28;20447;-75
2023/11/12 05:21:54;;;;;;;6.97;4.32;;;6.50;99.90;;;;;;5060984;28;20245;-76
2023/11/12 05:24:39;;;;;;;7.77;4.40;;;6.60;99.90;;;;;;5058675;28;20230;-77
2023/11/12 05:27:26;;;;;;;6.78;3.95;;;6.70;99.90;;;;;;5062294;28;20485;-76
2023/11/12 05:30:13;;;;;;;6.23;4.30;;;6.60;99.90;;;;;;5060064;28;20691;-76
2023/11/12 05:32:59;;;;;;;6.43;4.55;;;6.60;99.90;;;;;;5067225;28;20530;-77
2023/11/12 05:35:44;;;;;;;10.13;5.07;;;6.70;99.90;;;;;;5061968;28;20239;-76
2023/11/12 05:38:30;;;;;;;8.55;4.95;;;6.70;99.90;;;;;;5061374;28;20458;-76
2023/11/12 05:41:16;;;;;;;8.57;5.87;;;6.60;99.90;;;;;;5063930;28;20246;-77
2023/11/12 05:44:03;;;;;;;7.33;4.80;;;6.50;99.90;;;;;;5060102;28;20471;-77
2023/11/12 05:46:49;;;;;;;9.13;4.93;;;6.50;99.90;;;;;;5060575;28;20918;-76
2023/11/12 05:49:35;;;;;;;11.33;6.17;;;6.40;99.90;;;;;;5064817;28;20946;-75
2023/11/12 05:52:20;;;;;;;8.40;5.77;;;6.30;99.90;;;;;;5061092;28;20915;-76
2023/11/12 05:55:07;;;;;;;8.45;5.90;;;6.20;99.90;;;;;;5066118;28;20446;-77
2023/11/12 05:57:52;;;;;;;12.10;5.60;;;6.20;99.90;;;;;;5061177;28;20208;-75
2023/11/12 06:00:40;;;;;;;7.93;5.53;;;6.10;99.90;;;;;;5066462;28;20923;-77
2023/11/12 06:03:25;;;;;;;7.40;5.20;;;6.00;99.90;;;;;;5068479;28;20309;-76
2023/11/12 06:06:11;;;;;;;11.50;5.23;;;6.00;99.90;;;;;;5078248;28;20462;-76
2023/11/12 06:08:57;;;;;;;6.60;4.77;;;6.00;99.90;;;;;;5065444;28;20447;-75
2023/11/12 06:11:43;;;;;;;6.60;4.77;;;6.00;99.90;;;;;;5064104;28;20556;-76
2023/11/12 06:14:29;;;;;;;8.00;5.80;;;6.00;99.90;;;;;;5072660;28;20567;-77
2023/11/12 06:17:16;;;;;;;8.20;5.03;;;5.90;99.90;;;;;;5069689;28;20224;-77
2023/11/12 06:20:03;;;;;;;7.40;5.70;;;6.00;99.90;;;;;;5069139;28;20589;-77
2023/11/12 06:22:49;;;;;;;5.90;4.53;;;6.00;99.90;;;;;;5065967;28;20446;-75
2023/11/12 06:25:35;;;;;;;6.73;4.30;;;5.90;99.90;;;;;;5062967;28;20564;-77
2023/11/12 06:28:22;;;;;;;6.70;4.50;;;5.90;99.90;;;;;;5061645;28;21087;-77
2023/11/12 06:31:07;;;;;;;9.60;4.63;;;5.80;99.90;;;;;;5067666;28;20449;-76
2023/11/12 06:33:54;;;;;;;6.93;4.53;;;5.70;99.90;;;;;;5064791;28;20462;-77
2023/11/12 06:36:40;;;;;;;8.25;4.65;;;5.70;99.90;;;;;;5072813;28;20237;-76
2023/11/12 06:39:26;;;;;;;8.45;4.53;;;5.80;99.90;;;;;;5062811;28;20204;-76
2023/11/12 06:42:11;;;;;;;8.77;4.50;;;5.80;99.90;;;;;;5062602;28;20354;-76
2023/11/12 06:44:57;;;;;;;6.63;4.10;;;5.80;99.90;;;;;;5062984;28;20458;-75
2023/11/12 06:47:44;;;;;;;10.45;4.15;;;5.90;99.90;;;;;;5063634;28;21105;-76
2023/11/12 06:50:31;;;;;;;5.05;4.50;;;6.00;99.90;;;;;;5060187;28;20208;-77
2023/11/12 06:53:16;;;;;;;6.97;4.87;;;6.00;99.90;;;;;;5065299;28;20712;-76
2023/11/12 06:56:02;;;;;;;7.50;4.15;;;6.10;99.90;;;;;;5084078;28;20474;-76
2023/11/12 06:58:48;;;;;;;13.30;5.17;;;6.10;99.90;;;;;;5073873;28;20714;-75
2023/11/12 07:01:34;;;;;;;7.40;4.70;;;6.20;99.90;;;;;;5073006;28;20644;-77
2023/11/12 07:04:19;;;;;;;8.70;4.60;;;6.30;99.90;;;;;;5077756;28;20624;-77
2023/11/12 07:07:06;;;;;;;6.37;4.20;;;6.40;99.90;;;;;;5077420;28;20435;-77
2023/11/12 07:09:52;;;;;;;13.07;4.50;;;6.40;99.90;;;;;;5064857;28;20766;-77
2023/11/12 07:12:38;;;;;;;8.30;5.47;;;6.40;99.90;;;;;;5064206;28;20459;-75
2023/11/12 07:15:23;;;;;;;11.02;5.35;;;6.50;99.90;;;;;;5071247;28;20702;-77
2023/11/12 07:18:09;;;;;;;8.53;5.13;;;6.40;99.90;;;;;;5067585;28;20308;-76
2023/11/12 07:20:54;;;;;;;6.73;5.03;;;6.40;99.90;;;;;;5066055;28;20504;-76
2023/11/12 07:23:41;;;;;;;7.33;5.70;;;6.60;99.90;;;;;;5062056;28;20463;-77
2023/11/12 07:26:28;;;;;;;7.65;5.57;;;6.60;99.90;;;;;;5063281;28;20510;-76
2023/11/12 07:29:14;;;;;;;10.73;5.57;;;6.70;99.90;;;;;;5071423;28;20199;-77
2023/11/12 07:32:00;;;;;;;8.10;5.30;;;6.80;99.90;;;;;;5064227;28;20529;-77
2023/11/12 07:34:47;;;;;;;7.73;4.87;;;6.80;99.90;;;;;;5067202;28;20832;-76
2023/11/12 07:37:33;;;;;;;6.67;5.10;;;6.90;99.90;;;;;;5066023;28;21309;-76
2023/11/12 07:40:20;;;;;;;10.18;5.78;;;7.00;99.90;;;;;;5066276;28;20590;-77
2023/11/12 07:43:06;;;;;;;5.40;4.60;;;7.00;99.90;;;;;;5066645;28;20803;-77
2023/11/12 07:45:52;;;;;;;9.37;6.17;;;7.10;99.90;;;;;;5062963;28;21036;-77
2023/11/12 07:48:38;;;;;;;9.00;5.87;;;7.10;99.90;;;;;;5064629;28;20454;-77
2023/11/12 07:51:23;;;;;;;8.57;5.43;;;7.20;99.90;;;;;;5067028;28;20813;-77
2023/11/12 07:54:09;;;;;;;12.03;5.53;;;7.30;99.90;;;;;;5065675;28;20600;-77
2023/11/12 07:56:56;;;;;;;6.97;5.50;;;7.30;99.90;;;;;;5072347;28;20980;-77
2023/11/12 07:59:41;;;;;;;8.67;5.70;;;7.40;99.90;;;;;;5064501;28;20454;-75
2023/11/12 08:02:28;;;;;;;9.10;5.97;;;7.40;99.90;;;;;;5071222;28;20446;-77
2023/11/12 08:05:13;;;;;;;13.50;7.50;;;7.40;99.90;;;;;;5067869;28;20443;-77
2023/11/12 08:07:58;;;;;;;12.07;6.10;;;7.40;99.90;;;;;;5087338;28;20427;-77
2023/11/12 08:10:44;;;;;;;9.43;7.37;;;7.50;99.90;;;;;;5068283;28;20444;-77
2023/11/12 08:13:32;;;;;;;6.90;6.20;;;7.50;99.90;;;;;;5073368;28;20657;-77
2023/11/12 08:16:17;;;;;;;8.50;6.20;;;7.70;99.90;;;;;;5061798;28;20606;-74
2023/11/12 08:19:02;;;;;;;7.83;6.10;;;7.70;99.90;;;;;;5073704;28;20588;-77
2023/11/12 08:21:48;;;;;;;7.20;6.27;;;7.90;99.90;;;;;;5064654;28;20581;-76
2023/11/12 08:24:34;;;;;;;8.93;6.67;;;7.90;99.90;;;;;;5061750;28;20464;-77
2023/11/12 08:27:19;;;;;;;7.57;5.10;;;8.00;99.90;;;;;;5063430;28;20442;-77
2023/11/12 08:30:08;;;;;;;5.77;4.90;;;8.10;99.90;;;;;;5064186;28;20801;-77
2023/11/12 08:32:53;;;;;;;7.13;5.50;;;8.10;99.90;;;;;;5061365;28;20503;-77
2023/11/12 08:35:39;;;;;;;7.77;5.60;;;8.20;99.90;;;;;;5065853;28;20447;-77
2023/11/12 08:38:25;;;;;;;5.80;4.80;;;8.30;99.90;;;;;;5068001;28;20521;-75
2023/11/12 08:41:12;;;;;;;5.70;4.27;;;8.40;99.90;;;;;;5063765;28;20861;-76
2023/11/12 08:43:57;;;;;;;6.30;4.27;;;8.50;99.90;;;;;;5065605;28;20941;-76
2023/11/12 08:46:45;;;;;;;6.10;4.50;;;8.60;99.90;;;;;;5062413;28;20545;-75
2023/11/12 08:49:32;;;;;;;8.70;5.17;;;8.60;99.90;;;;;;5063229;28;20446;-77
2023/11/12 08:52:17;;;;;;;10.67;5.07;;;8.60;99.90;;;;;;5065194;28;20980;-75
2023/11/12 08:55:03;;;;;;;7.13;4.03;;;8.70;99.90;;;;;;5065566;28;20543;-76
2023/11/12 08:57:49;;;;;;;5.33;4.00;;;8.80;99.90;;;;;;5062649;28;20478;-77
2023/11/12 09:00:34;;;;;;;5.97;3.97;;;8.80;99.90;;;;;;5069441;28;20492;-77
2023/11/12 09:03:22;;;;;;;7.17;3.73;;;9.00;99.90;;;;;;5063575;28;21405;-76
2023/11/12 09:06:07;;;;;;;6.53;3.60;;;9.00;99.90;;;;;;5062911;28;20885;-77
2023/11/12 09:08:53;;;;;;;3.33;3.00;;;9.10;99.90;;;;;;5068306;28;20448;-77
2023/11/12 09:11:39;;;;;;;8.33;3.00;;;9.10;99.90;;;;;;5064354;28;20725;-77
2023/11/12 09:14:24;;;;;;;4.27;2.90;;;9.10;99.90;;;;;;5065958;28;20478;-75
2023/11/12 09:17:10;;;;;;;8.23;3.20;;;9.20;99.90;;;;;;5064510;28;20542;-75
2023/11/12 09:20:01;;;;;;;4.70;2.70;;;9.20;99.90;;;;;;5065047;28;20461;-75
2023/11/12 09:22:47;;;;;;;5.20;2.90;;;9.30;99.90;;;;;;5061320;28;20478;-76
2023/11/12 09:25:32;;;;;;;12.83;3.27;;;9.40;99.90;;;;;;5063104;28;20480;-76
2023/11/12 09:28:18;;;;;;;4.23;2.50;;;9.60;99.90;;;;;;5065545;28;20596;-76
2023/11/12 09:31:05;;;;;;;3.27;2.30;;;9.60;99.90;;;;;;5061947;28;20489;-76
2023/11/12 09:33:53;;;;;;;7.00;2.93;;;9.80;99.90;;;;;;5065680;28;20543;-75
2023/11/12 09:36:40;;;;;;;3.27;2.23;;;9.90;99.90;;;;;;5061280;28;20470;-75
2023/11/12 09:39:26;;;;;;;4.77;2.27;;;10.10;99.90;;;;;;5062647;28;20515;-76
2023/11/12 09:42:16;;;;;;;5.00;2.43;;;10.20;99.90;;;;;;5070302;28;20452;-75
2023/11/12 09:45:07;;;;;;;6.87;2.20;;;10.30;99.90;;;;;;5068300;28;20482;-76
2023/11/12 09:48:04;;;;;;;4.17;2.23;;;10.40;99.90;;;;;;5073111;28;20433;-76
2023/11/12 09:50:50;;;;;;;4.13;1.83;;;10.50;99.90;;;;;;5078662;28;20465;-75
2023/11/12 09:53:39;;;;;;;3.60;2.30;;;10.80;99.90;;;;;;5074677;28;20469;-75
2023/11/12 09:56:25;;;;;;;4.00;2.20;;;11.00;99.90;;;;;;5077527;28;20485;-76
2023/11/12 09:59:11;;;;;;;2.97;1.67;;;11.10;99.90;;;;;;5080151;28;20439;-76
2023/11/12 10:01:57;;;;;;;3.73;2.13;;;11.10;99.90;;;;;;5086184;28;20442;-76
2023/11/12 10:04:43;;;;;;;5.17;2.20;;;11.20;99.90;;;;;;5074600;28;20500;-76
2023/11/12 10:07:29;;;;;;;3.30;2.27;;;11.30;99.90;;;;;;5078524;28;20460;-75
2023/11/12 10:10:27;;;;;;;3.50;1.77;;;11.30;99.90;;;;;;5079362;28;20402;-76
2023/11/12 10:13:13;;;;;;;3.97;1.77;;;11.30;99.90;;;;;;5081804;28;20545;-75
2023/11/12 10:16:00;;;;;;;5.73;1.90;;;11.20;99.90;;;;;;5073956;28;20965;-75
2023/11/12 10:18:46;;;;;;;4.07;1.90;;;11.00;99.90;;;;;;5076324;28;20519;-75
2023/11/12 10:21:32;;;;;;;3.37;2.00;;;10.90;99.90;;;;;;5072614;28;20591;-75
2023/11/12 10:24:18;;;;;;;6.87;2.17;;;10.90;99.90;;;;;;5077926;28;20580;-75
2023/11/12 10:27:06;;;;;;;3.90;1.53;;;10.80;99.90;;;;;;5077358;28;20449;-76
2023/11/12 10:29:51;;;;;;;3.90;1.53;;;10.70;99.90;;;;;;5083636;28;20508;-76
2023/11/12 10:32:37;;;;;;;3.90;1.50;;;10.60;99.90;;;;;;5061734;28;20516;-75
2023/11/12 10:35:28;;;;;;;4.73;1.37;;;10.60;99.90;;;;;;5074513;28;20468;-75
2023/11/12 10:38:17;;;;;;;4.23;1.33;;;10.50;99.90;;;;;;5070537;28;20481;-76
2023/11/12 10:41:04;;;;;;;3.27;1.40;;;10.50;99.90;;;;;;5076081;28;20453;-75
2023/11/12 10:43:58;;;;;;;3.70;1.77;;;10.50;99.90;;;;;;5080138;28;21031;-75
2023/11/12 10:46:52;;;;;;;6.40;1.93;;;10.60;99.90;;;;;;5079108;28;20420;-75
2023/11/12 10:49:40;;;;;;;4.87;2.13;;;10.60;99.90;;;;;;5076294;28;20545;-76
2023/11/12 10:52:28;;;;;;;4.37;2.20;;;10.70;99.90;;;;;;5077832;28;20526;-75
2023/11/12 10:55:14;;;;;;;7.30;2.20;;;10.60;99.90;;;;;;5075639;28;20503;-75
2023/11/12 10:58:03;;;;;;;3.93;2.93;;;10.50;99.90;;;;;;5069047;28;20480;-75
2023/11/12 11:00:52;;;;;;;3.10;1.80;;;10.50;99.90;;;;;;5075555;28;20588;-75
2023/11/12 11:03:38;;;;;;;3.33;2.30;;;10.40;99.90;;;;;;5073337;28;20800;-75
2023/11/12 11:06:26;;;;;;;3.77;2.00;;;10.40;99.90;;;;;;5063782;28;20453;-75
2023/11/12 11:09:13;;;;;;;5.57;2.37;;;10.50;99.90;;;;;;5063491;28;20853;-75
2023/11/12 11:11:59;;;;;;;5.90;2.63;;;10.50;99.90;;;;;;5076673;28;20498;-75
2023/11/12 11:14:46;;;;;;;6.80;2.60;;;10.50;99.90;;;;;;5072886;28;20847;-75
2023/11/12 11:17:37;;;;;;;5.17;2.50;;;10.60;99.90;;;;;;5071475;28;20492;-75
2023/11/12 11:20:23;;;;;;;3.03;2.23;;;10.70;99.90;;;;;;5071542;28;20777;-75
2023/11/12 11:23:39;;;;;;;5.73;2.23;;;10.70;99.90;;;;;;5074863;28;20923;-75
2023/11/12 11:26:34;;;;;;;6.53;2.97;;;10.80;99.90;;;;;;5068279;28;21031;-75
2023/11/12 11:29:19;;;;;;;9.03;2.63;;;10.90;99.90;;;;;;5068633;28;20460;-74
2023/11/12 11:32:23;;;;;;;3.93;2.73;;;10.90;99.90;;;;;;5071965;28;20444;-75
2023/11/12 11:35:18;;;;;;;5.43;2.80;;;10.90;99.90;;;;;;5076100;28;20444;-75
2023/11/12 11:38:12;;;;;;;4.70;2.53;;;10.90;99.90;;;;;;5080606;28;20954;-75
2023/11/12 11:40:57;;;;;;;4.03;2.40;;;10.80;99.90;;;;;;5073741;28;20599;-75
2023/11/12 11:43:44;;;;;;;5.27;3.10;;;10.80;99.90;;;;;;5082952;28;21062;-75
2023/11/12 11:46:29;;;;;;;5.97;2.33;;;10.80;99.90;;;;;;5074469;28;20936;-75
2023/11/12 11:49:19;;;;;;;10.77;4.67;;;10.90;99.90;;;;;;5073281;28;20446;-75
2023/11/12 11:52:07;;;;;;;5.60;3.00;;;10.80;99.90;;;;;;5077242;28;20450;-74
2023/11/12 11:55:02;;;;;;;7.73;3.97;;;10.90;99.90;;;;;;5070108;28;20571;-75
2023/11/12 11:57:50;;;;;;;6.93;3.20;;;10.90;99.90;;;;;;5076933;28;20991;-75
2023/11/12 12:00:36;;;;;;;5.10;2.40;;;11.10;99.90;;;;;;5081805;28;20445;-74
2023/11/12 12:03:25;;;;;;;4.23;2.90;;;11.10;99.90;;;;;;5071711;28;21015;-75
2023/11/12 12:06:18;;;;;;;7.40;2.90;;;11.20;99.90;;;;;;5065740;28;20457;-75
2023/11/12 12:09:08;;;;;;;6.57;3.47;;;11.20;99.90;;;;;;5075842;28;20445;-76
2023/11/12 12:11:54;;;;;;;5.70;2.80;;;11.40;99.90;;;;;;5075446;28;20434;-75
2023/11/12 12:14:40;;;;;;;6.30;2.43;;;11.40;99.90;;;;;;5071818;28;20477;-75
2023/11/12 12:17:26;;;;;;;5.50;2.10;;;11.40;99.90;;;;;;5066576;28;20489;-75
2023/11/12 12:20:12;;;;;;;6.10;2.63;;;11.30;99.90;;;;;;5073708;28;20467;-75
2023/11/12 12:22:59;;;;;;;6.17;2.63;;;11.10;99.90;;;;;;5073679;28;20455;-75
2023/11/12 12:25:54;;;;;;;3.67;2.30;;;11.00;99.90;;;;;;5066266;28;20461;-74
2023/11/12 12:28:39;;;;;;;5.03;2.87;;;10.90;99.90;;;;;;5077046;28;20449;-75
2023/11/12 12:31:28;;;;;;;6.33;2.47;;;10.60;99.90;;;;;;5064213;28;20535;-75
2023/11/12 12:34:16;;;;;;;9.70;2.80;;;10.60;99.90;;;;;;5075538;28;21007;-75
2023/11/12 12:37:05;;;;;;;4.37;2.37;;;10.60;99.90;;;;;;5076958;28;20515;-76
2023/11/12 12:39:57;;;;;;;6.23;3.43;;;10.70;99.90;;;;;;5077945;28;20976;-75
2023/11/12 12:42:44;;;;;;;4.17;2.17;;;10.90;99.90;;;;;;5066523;28;20820;-75
2023/11/12 12:45:30;;;;;;;4.93;2.60;;;11.20;99.90;;;;;;5074630;28;20503;-75
2023/11/12 12:48:17;;;;;;;4.30;2.57;;;11.20;99.90;;;;;;5075768;28;20523;-75
2023/11/12 12:51:04;;;;;;;6.43;2.20;;;11.30;99.90;;;;;;5075662;28;20817;-75
2023/11/12 12:53:50;;;;;;;8.03;2.30;;;11.30;99.90;;;;;;5064987;28;20954;-75
2023/11/12 12:56:36;;;;;;;11.90;2.93;;;11.30;99.90;;;;;;5079162;28;20963;-76
2023/11/12 12:59:23;;;;;;;4.17;2.40;;;11.40;99.90;;;;;;5077064;28;20449;-75
2023/11/12 13:02:09;;;;;;;5.60;2.77;;;11.30;99.90;;;;;;5077218;28;20464;-75
2023/11/12 13:04:55;;;;;;;10.70;2.83;;;11.20;99.90;;;;;;5074350;28;20525;-74
2023/11/12 13:07:42;;;;;;;7.40;3.03;;;11.30;99.90;;;;;;5067533;28;20444;-75
2023/11/12 13:10:28;;;;;;;4.53;3.00;;;11.50;99.90;;;;;;5072079;28;20966;-75
2023/11/12 13:13:16;;;;;;;4.40;3.20;;;11.50;99.90;;;;;;5072972;28;20476;-75
2023/11/12 13:16:08;;;;;;;5.27;3.40;;;11.70;99.90;;;;;;5071327;28;20459;-75
2023/11/12 13:18:54;;;;;;;10.77;2.40;;;11.90;99.90;;;;;;5076256;28;20476;-75
2023/11/12 13:21:40;;;;;;;5.87;2.10;;;11.90;99.90;;;;;;5063779;28;20954;-75
2023/11/12 13:24:26;;;;;;;11.57;2.13;;;11.80;99.90;;;;;;5067820;28;20457;-75
2023/11/12 13:27:12;;;;;;;3.57;1.67;;;11.80;99.90;;;;;;5082379;28;20655;-75
2023/11/12 13:29:58;;;;;;;7.50;2.50;;;11.60;99.90;;;;;;5083246;28;20516;-75
2023/11/12 13:32:46;;;;;;;5.53;2.30;;;11.40;99.90;;;;;;5084204;28;20445;-75
2023/11/12 13:35:32;;;;;;;5.73;1.87;;;11.10;99.90;;;;;;5076331;28;20443;-74
2023/11/12 13:38:18;;;;;;;5.50;2.20;;;11.20;99.90;;;;;;5082308;28;21032;-75
2023/11/12 13:41:06;;;;;;;7.37;2.60;;;11.10;99.90;;;;;;5073881;28;20452;-75
2023/11/12 13:43:52;;;;;;;5.83;2.30;;;11.00;99.90;;;;;;5084153;28;20549;-75
2023/11/12 13:46:40;;;;;;;7.83;2.40;;;10.80;99.90;;;;;;5079666;28;20450;-75
2023/11/12 13:49:28;;;;;;;4.10;2.10;;;10.70;99.90;;;;;;5079952;28;20778;-74
2023/11/12 13:52:15;;;;;;;4.03;1.90;;;10.70;99.90;;;;;;5082490;28;20458;-75
2023/11/12 13:55:02;;;;;;;2.13;1.50;;;10.50;99.90;;;;;;5076774;28;20534;-75
2023/11/12 13:57:48;;;;;;;5.60;2.07;;;10.40;99.90;;;;;;5074307;28;20468;-75
2023/11/12 14:00:34;;;;;;;6.23;2.17;;;10.30;99.90;;;;;;5075964;28;20436;-76
2023/11/12 14:03:19;;;;;;;12.43;2.43;;;10.20;99.90;;;;;;5079918;28;20821;-75
2023/11/12 14:06:07;;;;;;;4.50;1.93;;;10.00;99.90;;;;;;5080116;28;20443;-76
2023/11/12 14:08:54;;;;;;;6.93;2.70;;;10.00;99.90;;;;;;5074303;28;20463;-75
2023/11/12 14:11:40;;;;;;;6.57;1.97;;;9.90;99.90;;;;;;5076652;28;20445;-75
2023/11/12 14:14:27;;;;;;;4.80;2.20;;;10.00;99.90;;;;;;5075238;28;20458;-75
2023/11/12 14:17:14;;;;;;;4.33;2.03;;;9.90;99.90;;;;;;5078040;28;20927;-75
2023/11/12 14:20:00;;;;;;;4.43;1.80;;;9.90;99.90;;;;;;5076511;28;20436;-75
2023/11/12 14:22:48;;;;;;;8.47;2.20;;;9.90;99.90;;;;;;5078646;28;20821;-76
2023/11/12 14:25:33;;;;;;;4.23;1.97;;;9.70;99.90;;;;;;5079608;28;20484;-75
2023/11/12 14:28:23;;;;;;;6.93;2.70;;;9.70;99.90;;;;;;5081429;28;20515;-75
2023/11/12 14:31:10;;;;;;;5.90;2.33;;;9.70;99.90;;;;;;5082439;28;20794;-76
2023/11/12 14:33:56;;;;;;;6.17;1.77;;;9.80;99.90;;;;;;5080386;28;20462;-76
2023/11/12 14:36:42;;;;;;;3.13;1.77;;;9.80;99.90;;;;;;5069109;28;20965;-75